sensor_id;sensor_type;location;lat;lon;timestamp;P1;durP1;ratioP1;P2;durP2;ratioP2
5493;SDS011;2769;49.864;8.656;2022-07-06T00:00:57;4.83;;;2.50;;
5493;SDS011;2769;49.864;8.656;2022-07-06T00:03:45;5.90;;;2.30;;
5493;SDS011;2769;49.864;8.656;2022-07-06T00:06:39;3.30;;;2.03;;
5493;SDS011;2769;49.864;8.656;2022-07-06T00:09:26;3.53;;;2.37;;
5493;SDS011;2769;49.864;8.656;2022-07-06T00:12:12;2.93;;;2.50;;
5493;SDS011;2769;49.864;8.656;2022-07-06T00:14:58;7.63;;;3.00;;
5493;SDS011;2769;49.864;8.656;2022-07-06T00:17:45;3.10;;;2.80;;
5493;SDS011;2769;49.864;8.656;2022-07-06T00:20:34;4.60;;;3.50;;
5493;SDS011;2769;49.864;8.656;2022-07-06T00:23:20;5.03;;;3.90;;
5493;SDS011;2769;49.864;8.656;2022-07-06T00:26:07;4.20;;;3.27;;
5493;SDS011;2769;49.864;8.656;2022-07-06T00:28:53;2.50;;;2.40;;
5493;SDS011;2769;49.864;8.656;2022-07-06T00:31:40;3.23;;;2.60;;
5493;SDS011;2769;49.864;8.656;2022-07-06T00:34:27;4.17;;;2.87;;
5493;SDS011;2769;49.864;8.656;2022-07-06T00:37:15;7.17;;;2.87;;
5493;SDS011;2769;49.864;8.656;2022-07-06T00:40:02;7.07;;;3.10;;
5493;SDS011;2769;49.864;8.656;2022-07-06T00:42:49;7.77;;;2.90;;
5493;SDS011;2769;49.864;8.656;2022-07-06T00:45:36;3.17;;;2.90;;
5493;SDS011;2769;49.864;8.656;2022-07-06T00:48:23;3.57;;;2.93;;
5493;SDS011;2769;49.864;8.656;2022-07-06T00:51:09;3.90;;;3.30;;
5493;SDS011;2769;49.864;8.656;2022-07-06T00:54:01;5.13;;;3.57;;
5493;SDS011;2769;49.864;8.656;2022-07-06T00:56:49;5.30;;;2.97;;
5493;SDS011;2769;49.864;8.656;2022-07-06T00:59:37;4.03;;;3.30;;
5493;SDS011;2769;49.864;8.656;2022-07-06T01:02:25;6.17;;;3.17;;
5493;SDS011;2769;49.864;8.656;2022-07-06T01:05:13;5.70;;;3.03;;
5493;SDS011;2769;49.864;8.656;2022-07-06T01:08:00;6.20;;;2.87;;
5493;SDS011;2769;49.864;8.656;2022-07-06T01:10:48;8.47;;;3.50;;
5493;SDS011;2769;49.864;8.656;2022-07-06T01:13:35;4.67;;;3.27;;
5493;SDS011;2769;49.864;8.656;2022-07-06T01:16:23;9.10;;;3.10;;
5493;SDS011;2769;49.864;8.656;2022-07-06T01:19:10;4.87;;;3.40;;
5493;SDS011;2769;49.864;8.656;2022-07-06T01:21:58;4.50;;;3.73;;
5493;SDS011;2769;49.864;8.656;2022-07-06T01:24:45;7.40;;;3.30;;
5493;SDS011;2769;49.864;8.656;2022-07-06T01:27:31;8.10;;;3.10;;
5493;SDS011;2769;49.864;8.656;2022-07-06T01:30:22;3.23;;;2.93;;
5493;SDS011;2769;49.864;8.656;2022-07-06T01:33:08;4.43;;;3.20;;
5493;SDS011;2769;49.864;8.656;2022-07-06T01:35:55;6.90;;;3.40;;
5493;SDS011;2769;49.864;8.656;2022-07-06T01:38:49;4.07;;;3.77;;
5493;SDS011;2769;49.864;8.656;2022-07-06T01:41:36;4.97;;;4.50;;
5493;SDS011;2769;49.864;8.656;2022-07-06T01:44:23;8.77;;;3.40;;
5493;SDS011;2769;49.864;8.656;2022-07-06T01:47:10;3.73;;;3.23;;
5493;SDS011;2769;49.864;8.656;2022-07-06T01:49:57;3.70;;;3.50;;
5493;SDS011;2769;49.864;8.656;2022-07-06T01:52:45;4.13;;;3.77;;
5493;SDS011;2769;49.864;8.656;2022-07-06T01:55:32;5.40;;;3.37;;
5493;SDS011;2769;49.864;8.656;2022-07-06T01:58:19;3.97;;;3.43;;
5493;SDS011;2769;49.864;8.656;2022-07-06T02:01:07;5.80;;;3.80;;
5493;SDS011;2769;49.864;8.656;2022-07-06T02:03:54;3.37;;;3.17;;
5493;SDS011;2769;49.864;8.656;2022-07-06T02:06:41;4.40;;;3.10;;
5493;SDS011;2769;49.864;8.656;2022-07-06T02:09:27;4.07;;;3.67;;
5493;SDS011;2769;49.864;8.656;2022-07-06T02:12:15;4.37;;;2.63;;
5493;SDS011;2769;49.864;8.656;2022-07-06T02:15:02;4.27;;;3.27;;
5493;SDS011;2769;49.864;8.656;2022-07-06T02:17:49;6.93;;;2.97;;
5493;SDS011;2769;49.864;8.656;2022-07-06T02:20:36;28.73;;;4.27;;
5493;SDS011;2769;49.864;8.656;2022-07-06T02:23:22;4.97;;;3.27;;
5493;SDS011;2769;49.864;8.656;2022-07-06T02:26:08;6.63;;;3.20;;
5493;SDS011;2769;49.864;8.656;2022-07-06T02:28:57;2.80;;;2.60;;
5493;SDS011;2769;49.864;8.656;2022-07-06T02:31:43;3.23;;;3.03;;
5493;SDS011;2769;49.864;8.656;2022-07-06T02:34:30;5.30;;;3.30;;
5493;SDS011;2769;49.864;8.656;2022-07-06T02:37:17;6.40;;;3.00;;
5493;SDS011;2769;49.864;8.656;2022-07-06T02:40:04;3.43;;;3.13;;
5493;SDS011;2769;49.864;8.656;2022-07-06T02:42:51;4.20;;;3.17;;
5493;SDS011;2769;49.864;8.656;2022-07-06T02:45:39;4.10;;;2.83;;
5493;SDS011;2769;49.864;8.656;2022-07-06T02:48:27;6.40;;;3.20;;
5493;SDS011;2769;49.864;8.656;2022-07-06T02:51:13;4.27;;;3.10;;
5493;SDS011;2769;49.864;8.656;2022-07-06T02:53:59;3.30;;;2.83;;
5493;SDS011;2769;49.864;8.656;2022-07-06T02:56:46;3.03;;;2.83;;
5493;SDS011;2769;49.864;8.656;2022-07-06T02:59:37;3.73;;;3.20;;
5493;SDS011;2769;49.864;8.656;2022-07-06T03:02:25;5.73;;;2.93;;
5493;SDS011;2769;49.864;8.656;2022-07-06T03:05:12;6.53;;;3.40;;
5493;SDS011;2769;49.864;8.656;2022-07-06T03:07:58;4.90;;;3.07;;
5493;SDS011;2769;49.864;8.656;2022-07-06T03:10:45;6.90;;;2.83;;
5493;SDS011;2769;49.864;8.656;2022-07-06T03:13:31;5.97;;;2.60;;
5493;SDS011;2769;49.864;8.656;2022-07-06T03:16:18;2.47;;;2.27;;
5493;SDS011;2769;49.864;8.656;2022-07-06T03:19:06;4.40;;;2.90;;
5493;SDS011;2769;49.864;8.656;2022-07-06T03:21:52;3.50;;;2.80;;
5493;SDS011;2769;49.864;8.656;2022-07-06T03:24:39;4.70;;;2.60;;
5493;SDS011;2769;49.864;8.656;2022-07-06T03:27:26;4.30;;;2.90;;
5493;SDS011;2769;49.864;8.656;2022-07-06T03:30:13;3.17;;;2.70;;
5493;SDS011;2769;49.864;8.656;2022-07-06T03:33:00;5.23;;;2.87;;
5493;SDS011;2769;49.864;8.656;2022-07-06T03:35:47;2.97;;;2.70;;
5493;SDS011;2769;49.864;8.656;2022-07-06T03:38:34;4.50;;;3.33;;
5493;SDS011;2769;49.864;8.656;2022-07-06T03:41:21;4.00;;;3.23;;
5493;SDS011;2769;49.864;8.656;2022-07-06T03:44:07;4.60;;;2.80;;
5493;SDS011;2769;49.864;8.656;2022-07-06T03:46:54;5.43;;;2.27;;
5493;SDS011;2769;49.864;8.656;2022-07-06T03:49:41;3.20;;;3.00;;
5493;SDS011;2769;49.864;8.656;2022-07-06T03:52:29;4.50;;;2.47;;
5493;SDS011;2769;49.864;8.656;2022-07-06T03:55:16;3.57;;;2.60;;
5493;SDS011;2769;49.864;8.656;2022-07-06T03:58:02;6.87;;;2.73;;
5493;SDS011;2769;49.864;8.656;2022-07-06T04:00:51;4.50;;;2.80;;
5493;SDS011;2769;49.864;8.656;2022-07-06T04:03:38;2.63;;;2.50;;
5493;SDS011;2769;49.864;8.656;2022-07-06T04:06:25;4.37;;;2.70;;
5493;SDS011;2769;49.864;8.656;2022-07-06T04:09:13;3.20;;;2.90;;
5493;SDS011;2769;49.864;8.656;2022-07-06T04:11:59;8.70;;;2.57;;
5493;SDS011;2769;49.864;8.656;2022-07-06T04:14:45;2.83;;;2.40;;
5493;SDS011;2769;49.864;8.656;2022-07-06T04:17:32;7.93;;;2.70;;
5493;SDS011;2769;49.864;8.656;2022-07-06T04:20:36;2.33;;;2.23;;
5493;SDS011;2769;49.864;8.656;2022-07-06T04:23:22;2.90;;;2.60;;
5493;SDS011;2769;49.864;8.656;2022-07-06T04:26:11;5.27;;;2.57;;
5493;SDS011;2769;49.864;8.656;2022-07-06T04:28:57;4.50;;;2.80;;
5493;SDS011;2769;49.864;8.656;2022-07-06T04:31:44;4.60;;;2.30;;
5493;SDS011;2769;49.864;8.656;2022-07-06T04:34:31;5.40;;;2.33;;
5493;SDS011;2769;49.864;8.656;2022-07-06T04:37:18;5.63;;;2.60;;
5493;SDS011;2769;49.864;8.656;2022-07-06T04:40:04;4.90;;;2.63;;
5493;SDS011;2769;49.864;8.656;2022-07-06T04:42:53;5.33;;;2.30;;
5493;SDS011;2769;49.864;8.656;2022-07-06T04:45:40;9.53;;;2.80;;
5493;SDS011;2769;49.864;8.656;2022-07-06T04:48:26;3.97;;;3.03;;
5493;SDS011;2769;49.864;8.656;2022-07-06T04:51:13;4.83;;;2.80;;
5493;SDS011;2769;49.864;8.656;2022-07-06T04:53:59;11.73;;;3.70;;
5493;SDS011;2769;49.864;8.656;2022-07-06T04:56:46;4.60;;;3.10;;
5493;SDS011;2769;49.864;8.656;2022-07-06T04:59:34;6.40;;;2.80;;
5493;SDS011;2769;49.864;8.656;2022-07-06T05:02:21;5.23;;;3.10;;
5493;SDS011;2769;49.864;8.656;2022-07-06T05:05:08;3.60;;;2.60;;
5493;SDS011;2769;49.864;8.656;2022-07-06T05:07:55;3.67;;;3.07;;
5493;SDS011;2769;49.864;8.656;2022-07-06T05:10:41;7.07;;;2.87;;
5493;SDS011;2769;49.864;8.656;2022-07-06T05:13:27;6.53;;;3.23;;
5493;SDS011;2769;49.864;8.656;2022-07-06T05:16:15;2.93;;;2.73;;
5493;SDS011;2769;49.864;8.656;2022-07-06T05:19:02;3.00;;;2.67;;
5493;SDS011;2769;49.864;8.656;2022-07-06T05:21:49;9.33;;;3.30;;
5493;SDS011;2769;49.864;8.656;2022-07-06T05:24:35;3.80;;;3.20;;
5493;SDS011;2769;49.864;8.656;2022-07-06T05:27:22;3.77;;;3.47;;
5493;SDS011;2769;49.864;8.656;2022-07-06T05:30:09;4.83;;;3.37;;
5493;SDS011;2769;49.864;8.656;2022-07-06T05:32:57;5.17;;;3.10;;
5493;SDS011;2769;49.864;8.656;2022-07-06T05:35:44;4.53;;;3.40;;
5493;SDS011;2769;49.864;8.656;2022-07-06T05:38:36;4.10;;;2.90;;
5493;SDS011;2769;49.864;8.656;2022-07-06T05:41:23;5.83;;;3.40;;
5493;SDS011;2769;49.864;8.656;2022-07-06T05:44:15;5.33;;;3.63;;
5493;SDS011;2769;49.864;8.656;2022-07-06T05:47:02;3.77;;;3.47;;
5493;SDS011;2769;49.864;8.656;2022-07-06T05:50:05;7.53;;;3.60;;
5493;SDS011;2769;49.864;8.656;2022-07-06T05:52:59;4.50;;;3.80;;
5493;SDS011;2769;49.864;8.656;2022-07-06T05:55:56;3.87;;;3.40;;
5493;SDS011;2769;49.864;8.656;2022-07-06T05:58:43;3.60;;;3.30;;
5493;SDS011;2769;49.864;8.656;2022-07-06T06:01:29;3.70;;;3.50;;
5493;SDS011;2769;49.864;8.656;2022-07-06T06:04:16;6.50;;;4.03;;
5493;SDS011;2769;49.864;8.656;2022-07-06T06:07:04;7.20;;;3.43;;
5493;SDS011;2769;49.864;8.656;2022-07-06T06:09:51;6.80;;;3.60;;
5493;SDS011;2769;49.864;8.656;2022-07-06T06:12:38;6.00;;;3.63;;
5493;SDS011;2769;49.864;8.656;2022-07-06T06:15:25;5.90;;;3.60;;
5493;SDS011;2769;49.864;8.656;2022-07-06T06:18:12;3.60;;;3.30;;
5493;SDS011;2769;49.864;8.656;2022-07-06T06:21:01;3.90;;;3.47;;
5493;SDS011;2769;49.864;8.656;2022-07-06T06:23:49;6.20;;;3.33;;
5493;SDS011;2769;49.864;8.656;2022-07-06T06:26:36;16.33;;;4.10;;
5493;SDS011;2769;49.864;8.656;2022-07-06T06:29:23;8.00;;;3.50;;
5493;SDS011;2769;49.864;8.656;2022-07-06T06:32:10;7.47;;;4.10;;
5493;SDS011;2769;49.864;8.656;2022-07-06T06:34:56;5.50;;;3.60;;
5493;SDS011;2769;49.864;8.656;2022-07-06T06:37:43;10.20;;;3.93;;
5493;SDS011;2769;49.864;8.656;2022-07-06T06:40:31;11.13;;;3.50;;
5493;SDS011;2769;49.864;8.656;2022-07-06T06:43:18;5.33;;;3.30;;
5493;SDS011;2769;49.864;8.656;2022-07-06T06:46:04;14.83;;;3.90;;
5493;SDS011;2769;49.864;8.656;2022-07-06T06:48:51;3.60;;;3.30;;
5493;SDS011;2769;49.864;8.656;2022-07-06T06:51:38;5.33;;;3.10;;
5493;SDS011;2769;49.864;8.656;2022-07-06T06:54:24;7.00;;;3.50;;
5493;SDS011;2769;49.864;8.656;2022-07-06T06:57:12;13.50;;;3.77;;
5493;SDS011;2769;49.864;8.656;2022-07-06T06:59:58;5.57;;;3.90;;
5493;SDS011;2769;49.864;8.656;2022-07-06T07:02:45;7.30;;;3.95;;
5493;SDS011;2769;49.864;8.656;2022-07-06T07:05:32;6.77;;;4.00;;
5493;SDS011;2769;49.864;8.656;2022-07-06T07:08:19;5.33;;;3.60;;
5493;SDS011;2769;49.864;8.656;2022-07-06T07:11:06;5.20;;;3.50;;
5493;SDS011;2769;49.864;8.656;2022-07-06T07:13:54;5.93;;;3.37;;
5493;SDS011;2769;49.864;8.656;2022-07-06T07:16:41;5.40;;;3.67;;
5493;SDS011;2769;49.864;8.656;2022-07-06T07:19:28;6.70;;;4.07;;
5493;SDS011;2769;49.864;8.656;2022-07-06T07:22:14;6.40;;;3.87;;
5493;SDS011;2769;49.864;8.656;2022-07-06T07:25:01;6.30;;;3.60;;
5493;SDS011;2769;49.864;8.656;2022-07-06T07:27:47;6.87;;;3.40;;
5493;SDS011;2769;49.864;8.656;2022-07-06T07:30:35;4.10;;;3.57;;
5493;SDS011;2769;49.864;8.656;2022-07-06T07:33:22;6.80;;;4.20;;
5493;SDS011;2769;49.864;8.656;2022-07-06T07:36:10;4.50;;;3.50;;
5493;SDS011;2769;49.864;8.656;2022-07-06T07:38:56;9.90;;;3.10;;
5493;SDS011;2769;49.864;8.656;2022-07-06T07:41:43;5.17;;;3.33;;
5493;SDS011;2769;49.864;8.656;2022-07-06T07:44:29;6.00;;;3.87;;
5493;SDS011;2769;49.864;8.656;2022-07-06T07:47:17;4.80;;;3.83;;
5493;SDS011;2769;49.864;8.656;2022-07-06T07:50:04;7.00;;;4.50;;
5493;SDS011;2769;49.864;8.656;2022-07-06T07:52:52;9.33;;;3.60;;
5493;SDS011;2769;49.864;8.656;2022-07-06T07:55:38;9.03;;;3.30;;
5493;SDS011;2769;49.864;8.656;2022-07-06T07:58:26;5.43;;;3.67;;
5493;SDS011;2769;49.864;8.656;2022-07-06T08:01:13;12.37;;;4.60;;
5493;SDS011;2769;49.864;8.656;2022-07-06T08:04:01;5.00;;;3.90;;
5493;SDS011;2769;49.864;8.656;2022-07-06T08:06:48;6.60;;;3.97;;
5493;SDS011;2769;49.864;8.656;2022-07-06T08:09:35;8.93;;;4.50;;
5493;SDS011;2769;49.864;8.656;2022-07-06T08:12:21;7.63;;;3.97;;
5493;SDS011;2769;49.864;8.656;2022-07-06T08:15:08;6.63;;;4.40;;
5493;SDS011;2769;49.864;8.656;2022-07-06T08:17:55;4.60;;;4.20;;
5493;SDS011;2769;49.864;8.656;2022-07-06T08:20:43;5.63;;;4.10;;
5493;SDS011;2769;49.864;8.656;2022-07-06T08:23:49;7.23;;;4.80;;
5493;SDS011;2769;49.864;8.656;2022-07-06T08:26:37;9.83;;;4.30;;
5493;SDS011;2769;49.864;8.656;2022-07-06T08:29:23;4.60;;;3.90;;
5493;SDS011;2769;49.864;8.656;2022-07-06T08:32:10;5.27;;;3.70;;
5493;SDS011;2769;49.864;8.656;2022-07-06T08:35:17;5.67;;;4.27;;
5493;SDS011;2769;49.864;8.656;2022-07-06T08:38:06;7.03;;;3.50;;
5493;SDS011;2769;49.864;8.656;2022-07-06T08:40:54;5.57;;;4.17;;
5493;SDS011;2769;49.864;8.656;2022-07-06T08:43:41;5.63;;;4.07;;
5493;SDS011;2769;49.864;8.656;2022-07-06T08:46:29;10.20;;;4.03;;
5493;SDS011;2769;49.864;8.656;2022-07-06T08:49:17;6.93;;;3.63;;
5493;SDS011;2769;49.864;8.656;2022-07-06T08:52:05;5.00;;;4.03;;
5493;SDS011;2769;49.864;8.656;2022-07-06T08:54:55;6.03;;;3.60;;
5493;SDS011;2769;49.864;8.656;2022-07-06T08:57:43;5.53;;;3.10;;
5493;SDS011;2769;49.864;8.656;2022-07-06T09:00:32;3.80;;;3.20;;
5493;SDS011;2769;49.864;8.656;2022-07-06T09:03:19;5.00;;;2.87;;
5493;SDS011;2769;49.864;8.656;2022-07-06T09:06:06;4.33;;;2.87;;
5493;SDS011;2769;49.864;8.656;2022-07-06T09:08:55;7.00;;;3.30;;
5493;SDS011;2769;49.864;8.656;2022-07-06T09:11:44;3.00;;;2.80;;
5493;SDS011;2769;49.864;8.656;2022-07-06T09:14:30;10.77;;;3.60;;
5493;SDS011;2769;49.864;8.656;2022-07-06T09:17:17;6.20;;;3.73;;
5493;SDS011;2769;49.864;8.656;2022-07-06T09:20:05;4.10;;;3.23;;
5493;SDS011;2769;49.864;8.656;2022-07-06T09:22:56;4.87;;;3.87;;
5493;SDS011;2769;49.864;8.656;2022-07-06T09:25:47;7.13;;;3.57;;
5493;SDS011;2769;49.864;8.656;2022-07-06T09:28:42;5.77;;;3.20;;
5493;SDS011;2769;49.864;8.656;2022-07-06T09:31:29;3.47;;;3.17;;
5493;SDS011;2769;49.864;8.656;2022-07-06T09:34:17;4.70;;;3.50;;
5493;SDS011;2769;49.864;8.656;2022-07-06T09:37:03;5.40;;;3.30;;
5493;SDS011;2769;49.864;8.656;2022-07-06T09:39:52;8.40;;;3.40;;
5493;SDS011;2769;49.864;8.656;2022-07-06T09:42:39;4.30;;;3.50;;
5493;SDS011;2769;49.864;8.656;2022-07-06T09:45:29;3.17;;;2.97;;
5493;SDS011;2769;49.864;8.656;2022-07-06T09:48:16;5.67;;;3.47;;
5493;SDS011;2769;49.864;8.656;2022-07-06T09:51:07;4.03;;;2.70;;
5493;SDS011;2769;49.864;8.656;2022-07-06T09:53:53;5.23;;;2.90;;
5493;SDS011;2769;49.864;8.656;2022-07-06T09:56:44;12.63;;;2.77;;
5493;SDS011;2769;49.864;8.656;2022-07-06T09:59:35;7.00;;;3.27;;
5493;SDS011;2769;49.864;8.656;2022-07-06T10:02:24;2.97;;;2.77;;
5493;SDS011;2769;49.864;8.656;2022-07-06T10:05:13;6.83;;;3.37;;
5493;SDS011;2769;49.864;8.656;2022-07-06T10:08:01;4.77;;;2.63;;
5493;SDS011;2769;49.864;8.656;2022-07-06T10:10:50;3.23;;;2.43;;
5493;SDS011;2769;49.864;8.656;2022-07-06T10:13:37;3.50;;;2.83;;
5493;SDS011;2769;49.864;8.656;2022-07-06T10:16:25;3.27;;;2.40;;
5493;SDS011;2769;49.864;8.656;2022-07-06T10:19:14;3.90;;;2.57;;
5493;SDS011;2769;49.864;8.656;2022-07-06T10:22:02;7.80;;;2.50;;
5493;SDS011;2769;49.864;8.656;2022-07-06T10:24:49;5.47;;;2.20;;
5493;SDS011;2769;49.864;8.656;2022-07-06T10:27:37;4.83;;;2.53;;
5493;SDS011;2769;49.864;8.656;2022-07-06T10:30:24;2.30;;;2.10;;
5493;SDS011;2769;49.864;8.656;2022-07-06T10:33:13;2.53;;;2.23;;
5493;SDS011;2769;49.864;8.656;2022-07-06T10:36:02;2.23;;;2.00;;
5493;SDS011;2769;49.864;8.656;2022-07-06T10:38:50;3.53;;;1.87;;
5493;SDS011;2769;49.864;8.656;2022-07-06T10:41:38;2.50;;;2.20;;
5493;SDS011;2769;49.864;8.656;2022-07-06T10:44:24;1.90;;;1.80;;
5493;SDS011;2769;49.864;8.656;2022-07-06T10:47:12;3.33;;;1.87;;
5493;SDS011;2769;49.864;8.656;2022-07-06T10:49:59;3.10;;;2.00;;
5493;SDS011;2769;49.864;8.656;2022-07-06T10:52:57;2.10;;;1.63;;
5493;SDS011;2769;49.864;8.656;2022-07-06T10:55:44;4.20;;;1.50;;
5493;SDS011;2769;49.864;8.656;2022-07-06T10:58:39;3.00;;;1.60;;
5493;SDS011;2769;49.864;8.656;2022-07-06T11:01:27;5.97;;;1.90;;
5493;SDS011;2769;49.864;8.656;2022-07-06T11:04:14;3.90;;;1.60;;
5493;SDS011;2769;49.864;8.656;2022-07-06T11:07:06;2.10;;;1.90;;
5493;SDS011;2769;49.864;8.656;2022-07-06T11:09:55;3.20;;;1.50;;
5493;SDS011;2769;49.864;8.656;2022-07-06T11:12:44;2.20;;;1.67;;
5493;SDS011;2769;49.864;8.656;2022-07-06T11:15:46;2.03;;;1.60;;
5493;SDS011;2769;49.864;8.656;2022-07-06T11:18:38;1.90;;;1.80;;
5493;SDS011;2769;49.864;8.656;2022-07-06T11:21:32;4.23;;;1.50;;
5493;SDS011;2769;49.864;8.656;2022-07-06T11:24:21;4.10;;;1.37;;
5493;SDS011;2769;49.864;8.656;2022-07-06T11:27:11;2.77;;;1.23;;
5493;SDS011;2769;49.864;8.656;2022-07-06T11:29:58;1.70;;;1.60;;
5493;SDS011;2769;49.864;8.656;2022-07-06T11:32:44;3.47;;;1.40;;
5493;SDS011;2769;49.864;8.656;2022-07-06T11:35:31;2.63;;;1.47;;
5493;SDS011;2769;49.864;8.656;2022-07-06T11:38:26;1.77;;;1.60;;
5493;SDS011;2769;49.864;8.656;2022-07-06T11:41:13;4.33;;;1.80;;
5493;SDS011;2769;49.864;8.656;2022-07-06T11:44:02;4.10;;;1.50;;
5493;SDS011;2769;49.864;8.656;2022-07-06T11:46:49;1.50;;;1.40;;
5493;SDS011;2769;49.864;8.656;2022-07-06T11:49:37;2.23;;;1.17;;
5493;SDS011;2769;49.864;8.656;2022-07-06T11:52:25;6.33;;;1.60;;
5493;SDS011;2769;49.864;8.656;2022-07-06T11:55:13;1.83;;;1.40;;
5493;SDS011;2769;49.864;8.656;2022-07-06T11:58:00;2.20;;;1.50;;
5493;SDS011;2769;49.864;8.656;2022-07-06T12:01:05;2.07;;;1.97;;
5493;SDS011;2769;49.864;8.656;2022-07-06T12:03:53;2.17;;;1.50;;
5493;SDS011;2769;49.864;8.656;2022-07-06T12:06:43;1.40;;;1.40;;
5493;SDS011;2769;49.864;8.656;2022-07-06T12:09:30;1.87;;;1.77;;
5493;SDS011;2769;49.864;8.656;2022-07-06T12:12:17;1.90;;;1.80;;
5493;SDS011;2769;49.864;8.656;2022-07-06T12:15:04;2.53;;;2.33;;
5493;SDS011;2769;49.864;8.656;2022-07-06T12:17:52;1.87;;;1.73;;
5493;SDS011;2769;49.864;8.656;2022-07-06T12:20:39;2.03;;;1.93;;
5493;SDS011;2769;49.864;8.656;2022-07-06T12:23:37;1.30;;;1.30;;
5493;SDS011;2769;49.864;8.656;2022-07-06T12:26:25;1.93;;;1.70;;
5493;SDS011;2769;49.864;8.656;2022-07-06T12:29:22;2.13;;;1.70;;
5493;SDS011;2769;49.864;8.656;2022-07-06T12:32:13;2.10;;;1.80;;
5493;SDS011;2769;49.864;8.656;2022-07-06T12:35:04;1.90;;;1.80;;
5493;SDS011;2769;49.864;8.656;2022-07-06T12:37:55;3.17;;;1.40;;
5493;SDS011;2769;49.864;8.656;2022-07-06T12:40:43;1.97;;;1.87;;
5493;SDS011;2769;49.864;8.656;2022-07-06T12:43:34;1.63;;;1.50;;
5493;SDS011;2769;49.864;8.656;2022-07-06T12:46:23;1.37;;;1.30;;
5493;SDS011;2769;49.864;8.656;2022-07-06T12:49:14;7.00;;;1.57;;
5493;SDS011;2769;49.864;8.656;2022-07-06T12:52:07;2.53;;;1.47;;
5493;SDS011;2769;49.864;8.656;2022-07-06T12:54:59;2.40;;;1.57;;
5493;SDS011;2769;49.864;8.656;2022-07-06T12:57:52;6.63;;;1.37;;
5493;SDS011;2769;49.864;8.656;2022-07-06T13:00:43;1.40;;;1.23;;
5493;SDS011;2769;49.864;8.656;2022-07-06T13:03:38;3.43;;;1.60;;
5493;SDS011;2769;49.864;8.656;2022-07-06T13:06:32;1.80;;;1.70;;
5493;SDS011;2769;49.864;8.656;2022-07-06T13:09:22;5.13;;;1.60;;
5493;SDS011;2769;49.864;8.656;2022-07-06T13:12:09;2.33;;;1.23;;
5493;SDS011;2769;49.864;8.656;2022-07-06T13:14:56;2.10;;;1.30;;
5493;SDS011;2769;49.864;8.656;2022-07-06T13:17:43;2.20;;;1.20;;
5493;SDS011;2769;49.864;8.656;2022-07-06T13:20:31;4.50;;;1.80;;
5493;SDS011;2769;49.864;8.656;2022-07-06T13:23:18;1.50;;;1.40;;
5493;SDS011;2769;49.864;8.656;2022-07-06T13:26:04;2.10;;;1.27;;
5493;SDS011;2769;49.864;8.656;2022-07-06T13:28:51;1.50;;;1.40;;
5493;SDS011;2769;49.864;8.656;2022-07-06T13:31:38;6.13;;;1.43;;
5493;SDS011;2769;49.864;8.656;2022-07-06T13:34:26;1.53;;;1.37;;
5493;SDS011;2769;49.864;8.656;2022-07-06T13:37:14;1.90;;;1.30;;
5493;SDS011;2769;49.864;8.656;2022-07-06T13:40:01;3.67;;;1.40;;
5493;SDS011;2769;49.864;8.656;2022-07-06T13:42:48;1.47;;;1.37;;
5493;SDS011;2769;49.864;8.656;2022-07-06T13:45:34;7.20;;;1.60;;
5493;SDS011;2769;49.864;8.656;2022-07-06T13:48:21;12.20;;;1.57;;
5493;SDS011;2769;49.864;8.656;2022-07-06T13:51:08;2.87;;;1.40;;
5493;SDS011;2769;49.864;8.656;2022-07-06T13:53:56;2.63;;;1.50;;
5493;SDS011;2769;49.864;8.656;2022-07-06T13:56:43;2.27;;;1.53;;
5493;SDS011;2769;49.864;8.656;2022-07-06T13:59:30;4.10;;;1.60;;
5493;SDS011;2769;49.864;8.656;2022-07-06T14:02:16;4.00;;;1.50;;
5493;SDS011;2769;49.864;8.656;2022-07-06T14:05:03;3.80;;;1.40;;
5493;SDS011;2769;49.864;8.656;2022-07-06T14:07:51;2.77;;;1.43;;
5493;SDS011;2769;49.864;8.656;2022-07-06T14:10:39;1.70;;;1.60;;
5493;SDS011;2769;49.864;8.656;2022-07-06T14:13:26;3.33;;;1.53;;
5493;SDS011;2769;49.864;8.656;2022-07-06T14:16:13;1.60;;;1.60;;
5493;SDS011;2769;49.864;8.656;2022-07-06T14:18:59;2.33;;;1.53;;
5493;SDS011;2769;49.864;8.656;2022-07-06T14:21:46;1.87;;;1.67;;
5493;SDS011;2769;49.864;8.656;2022-07-06T14:24:33;2.40;;;1.60;;
5493;SDS011;2769;49.864;8.656;2022-07-06T14:27:21;2.10;;;1.60;;
5493;SDS011;2769;49.864;8.656;2022-07-06T14:30:09;9.40;;;1.80;;
5493;SDS011;2769;49.864;8.656;2022-07-06T14:32:56;4.13;;;2.07;;
5493;SDS011;2769;49.864;8.656;2022-07-06T14:35:43;6.10;;;1.60;;
5493;SDS011;2769;49.864;8.656;2022-07-06T14:38:32;2.50;;;1.80;;
5493;SDS011;2769;49.864;8.656;2022-07-06T14:41:19;7.23;;;2.00;;
5493;SDS011;2769;49.864;8.656;2022-07-06T14:44:07;4.40;;;1.90;;
5493;SDS011;2769;49.864;8.656;2022-07-06T14:46:53;9.20;;;2.33;;
5493;SDS011;2769;49.864;8.656;2022-07-06T14:49:40;3.17;;;2.13;;
5493;SDS011;2769;49.864;8.656;2022-07-06T14:52:27;2.97;;;2.03;;
5493;SDS011;2769;49.864;8.656;2022-07-06T14:55:14;3.03;;;1.83;;
5493;SDS011;2769;49.864;8.656;2022-07-06T14:58:01;4.23;;;1.67;;
5493;SDS011;2769;49.864;8.656;2022-07-06T15:00:48;4.20;;;1.60;;
5493;SDS011;2769;49.864;8.656;2022-07-06T15:03:43;1.90;;;1.47;;
5493;SDS011;2769;49.864;8.656;2022-07-06T15:06:30;5.03;;;1.80;;
5493;SDS011;2769;49.864;8.656;2022-07-06T15:09:37;1.70;;;1.60;;
5493;SDS011;2769;49.864;8.656;2022-07-06T15:12:23;9.00;;;1.87;;
5493;SDS011;2769;49.864;8.656;2022-07-06T15:15:10;10.50;;;1.83;;
5493;SDS011;2769;49.864;8.656;2022-07-06T15:18:18;2.93;;;1.93;;
5493;SDS011;2769;49.864;8.656;2022-07-06T15:21:05;2.23;;;1.50;;
5493;SDS011;2769;49.864;8.656;2022-07-06T15:23:54;14.17;;;1.50;;
5493;SDS011;2769;49.864;8.656;2022-07-06T15:26:41;2.03;;;1.50;;
5493;SDS011;2769;49.864;8.656;2022-07-06T15:29:27;4.50;;;1.40;;
5493;SDS011;2769;49.864;8.656;2022-07-06T15:32:14;2.40;;;1.90;;
5493;SDS011;2769;49.864;8.656;2022-07-06T15:35:03;3.40;;;1.40;;
5493;SDS011;2769;49.864;8.656;2022-07-06T15:37:50;3.80;;;1.60;;
5493;SDS011;2769;49.864;8.656;2022-07-06T15:40:39;2.63;;;1.80;;
5493;SDS011;2769;49.864;8.656;2022-07-06T15:43:30;6.10;;;3.10;;
5493;SDS011;2769;49.864;8.656;2022-07-06T15:46:16;1.90;;;1.80;;
5493;SDS011;2769;49.864;8.656;2022-07-06T15:49:04;2.43;;;1.60;;
5493;SDS011;2769;49.864;8.656;2022-07-06T15:51:51;5.57;;;1.63;;
5493;SDS011;2769;49.864;8.656;2022-07-06T15:54:38;2.90;;;1.73;;
5493;SDS011;2769;49.864;8.656;2022-07-06T15:57:24;2.80;;;1.80;;
5493;SDS011;2769;49.864;8.656;2022-07-06T16:00:11;2.20;;;2.00;;
5493;SDS011;2769;49.864;8.656;2022-07-06T16:02:59;2.60;;;1.90;;
5493;SDS011;2769;49.864;8.656;2022-07-06T16:05:45;9.10;;;2.03;;
5493;SDS011;2769;49.864;8.656;2022-07-06T16:08:53;6.70;;;1.77;;
5493;SDS011;2769;49.864;8.656;2022-07-06T16:11:40;2.17;;;1.63;;
5493;SDS011;2769;49.864;8.656;2022-07-06T16:14:27;6.23;;;2.03;;
5493;SDS011;2769;49.864;8.656;2022-07-06T16:17:13;2.37;;;1.67;;
5493;SDS011;2769;49.864;8.656;2022-07-06T16:20:00;7.07;;;1.80;;
5493;SDS011;2769;49.864;8.656;2022-07-06T16:22:46;4.40;;;1.97;;
5493;SDS011;2769;49.864;8.656;2022-07-06T16:25:34;2.00;;;1.80;;
5493;SDS011;2769;49.864;8.656;2022-07-06T16:28:21;2.07;;;1.60;;
5493;SDS011;2769;49.864;8.656;2022-07-06T16:31:08;10.20;;;2.33;;
5493;SDS011;2769;49.864;8.656;2022-07-06T16:33:55;2.67;;;2.40;;
5493;SDS011;2769;49.864;8.656;2022-07-06T16:36:42;6.93;;;2.77;;
5493;SDS011;2769;49.864;8.656;2022-07-06T16:39:29;2.50;;;2.30;;
5493;SDS011;2769;49.864;8.656;2022-07-06T16:42:17;2.40;;;2.20;;
5493;SDS011;2769;49.864;8.656;2022-07-06T16:45:04;10.00;;;2.80;;
5493;SDS011;2769;49.864;8.656;2022-07-06T16:47:52;2.70;;;2.07;;
5493;SDS011;2769;49.864;8.656;2022-07-06T16:50:39;2.90;;;2.10;;
5493;SDS011;2769;49.864;8.656;2022-07-06T16:53:26;5.13;;;2.37;;
5493;SDS011;2769;49.864;8.656;2022-07-06T16:56:13;3.00;;;2.37;;
5493;SDS011;2769;49.864;8.656;2022-07-06T16:59:01;2.80;;;2.30;;
5493;SDS011;2769;49.864;8.656;2022-07-06T17:01:51;5.53;;;2.60;;
5493;SDS011;2769;49.864;8.656;2022-07-06T17:04:38;2.50;;;2.30;;
5493;SDS011;2769;49.864;8.656;2022-07-06T17:07:24;2.30;;;2.13;;
5493;SDS011;2769;49.864;8.656;2022-07-06T17:10:11;6.43;;;2.97;;
5493;SDS011;2769;49.864;8.656;2022-07-06T17:12:59;2.30;;;2.07;;
5493;SDS011;2769;49.864;8.656;2022-07-06T17:15:46;4.57;;;2.20;;
5493;SDS011;2769;49.864;8.656;2022-07-06T17:18:39;5.70;;;2.47;;
5493;SDS011;2769;49.864;8.656;2022-07-06T17:21:25;6.13;;;3.30;;
5493;SDS011;2769;49.864;8.656;2022-07-06T17:24:12;4.57;;;2.40;;